createdAt,value
2022-08-02T00:00:31.571Z,975.62
2022-08-02T00:01:31.669Z,975.62
2022-08-02T00:02:31.565Z,975.61
2022-08-02T00:03:31.558Z,975.60
2022-08-02T00:04:31.558Z,975.56
2022-08-02T00:05:31.565Z,975.59
2022-08-02T00:06:31.547Z,975.60
2022-08-02T00:07:31.553Z,975.62
2022-08-02T00:08:31.540Z,975.63
2022-08-02T00:09:31.536Z,975.62
2022-08-02T00:10:31.534Z,975.64
2022-08-02T00:11:31.530Z,975.61
2022-08-02T00:12:31.521Z,975.62
2022-08-02T00:13:31.516Z,975.61
2022-08-02T00:14:31.515Z,975.61
2022-08-02T00:15:31.507Z,975.61
2022-08-02T00:16:37.987Z,975.60
2022-08-02T00:17:31.501Z,975.59
2022-08-02T00:18:31.498Z,975.57
2022-08-02T00:19:31.492Z,975.59
2022-08-02T00:20:31.504Z,975.55
2022-08-02T00:21:31.482Z,975.51
2022-08-02T00:22:31.482Z,975.57
2022-08-02T00:23:31.476Z,975.55
2022-08-02T00:24:31.493Z,975.53
2022-08-02T00:25:31.466Z,975.54
2022-08-02T00:26:31.465Z,975.51
2022-08-02T00:27:31.460Z,975.51
2022-08-02T00:28:31.454Z,975.49
2022-08-02T00:29:31.450Z,975.51
2022-08-02T00:30:31.447Z,975.48
2022-08-02T00:31:31.445Z,975.49
2022-08-02T00:32:31.437Z,975.48
2022-08-02T00:34:05.673Z,975.50
2022-08-02T00:34:35.010Z,975.55
2022-08-02T00:35:31.425Z,975.51
2022-08-02T00:36:31.421Z,975.50
2022-08-02T00:37:31.416Z,975.52
2022-08-02T00:38:31.411Z,975.46
2022-08-02T00:39:34.665Z,975.45
2022-08-02T00:40:31.419Z,975.45
2022-08-02T00:41:31.400Z,975.46
2022-08-02T00:42:31.395Z,975.43
2022-08-02T00:43:31.398Z,975.47
2022-08-02T00:44:31.384Z,975.45
2022-08-02T00:46:02.229Z,975.47
2022-08-02T00:46:31.375Z,975.48
2022-08-02T00:47:31.472Z,975.49
2022-08-02T00:48:31.366Z,975.47
2022-08-02T00:49:31.435Z,975.49
2022-08-02T00:50:31.357Z,975.44
2022-08-02T00:51:31.355Z,975.44
2022-08-02T00:52:31.449Z,975.45
2022-08-02T00:53:31.346Z,975.40
2022-08-02T00:54:31.342Z,975.38
2022-08-02T00:55:31.571Z,975.39
2022-08-02T00:56:31.331Z,975.39
2022-08-02T00:57:31.377Z,975.39
2022-08-02T00:58:31.321Z,975.37
2022-08-02T00:59:31.319Z,975.36
2022-08-02T01:00:31.317Z,975.35
2022-08-02T01:01:31.340Z,975.31
2022-08-02T01:02:31.354Z,975.32
2022-08-02T01:03:31.301Z,975.30
2022-08-02T01:04:32.403Z,975.29
2022-08-02T01:05:39.029Z,975.28
2022-08-02T01:06:31.286Z,975.28
2022-08-02T01:07:31.282Z,975.27
2022-08-02T01:08:31.779Z,975.29
2022-08-02T01:09:31.276Z,975.24
2022-08-02T01:10:31.268Z,975.24
2022-08-02T01:11:31.264Z,975.25
2022-08-02T01:12:31.260Z,975.20
2022-08-02T01:13:31.256Z,975.22
2022-08-02T01:14:31.247Z,975.23
2022-08-02T01:15:35.934Z,975.22
2022-08-02T01:16:31.240Z,975.20
2022-08-02T01:17:31.236Z,975.19
2022-08-02T01:18:31.231Z,975.16
2022-08-02T01:19:31.228Z,975.21
2022-08-02T01:20:31.221Z,975.17
2022-08-02T01:21:31.220Z,975.22
2022-08-02T01:22:59.403Z,975.24
2022-08-02T01:23:31.209Z,975.24
2022-08-02T01:24:31.202Z,975.31
2022-08-02T01:25:31.200Z,975.26
2022-08-02T01:26:31.193Z,975.29
2022-08-02T01:27:31.190Z,975.31
2022-08-02T01:28:31.183Z,975.23
2022-08-02T01:29:31.178Z,975.24
2022-08-02T01:30:31.173Z,975.24
2022-08-02T01:31:31.170Z,975.25
2022-08-02T01:32:31.164Z,975.24
2022-08-02T01:33:31.161Z,975.22
2022-08-02T01:34:31.155Z,975.22
2022-08-02T01:35:50.705Z,975.24
2022-08-02T01:36:31.145Z,975.20
2022-08-02T01:37:31.141Z,975.19
2022-08-02T01:38:31.134Z,975.17
2022-08-02T01:39:32.495Z,975.18
2022-08-02T01:40:31.126Z,975.17
2022-08-02T01:41:31.122Z,975.15
2022-08-02T01:42:31.117Z,975.12
2022-08-02T01:43:31.112Z,975.14
2022-08-02T01:44:31.104Z,975.12
2022-08-02T01:45:31.101Z,975.10
2022-08-02T01:46:31.094Z,975.13
2022-08-02T01:47:31.094Z,975.14
2022-08-02T01:48:31.085Z,975.12
2022-08-02T01:49:31.225Z,975.14
2022-08-02T01:50:31.076Z,975.08
2022-08-02T01:51:34.562Z,975.10
2022-08-02T01:52:31.068Z,975.11
2022-08-02T01:53:31.063Z,975.16
2022-08-02T01:54:31.054Z,975.17
2022-08-02T01:55:35.322Z,975.12
2022-08-02T01:56:31.046Z,975.08
2022-08-02T01:57:31.041Z,975.10
2022-08-02T01:58:31.034Z,975.12
2022-08-02T01:59:31.032Z,975.10
2022-08-02T02:00:31.025Z,975.07
2022-08-02T02:01:31.058Z,975.08
2022-08-02T02:02:31.878Z,975.08
2022-08-02T02:03:31.011Z,975.04
2022-08-02T02:04:31.007Z,975.04
2022-08-02T02:05:31.002Z,975.06
2022-08-02T02:06:30.994Z,975.06
2022-08-02T02:07:30.991Z,975.05
2022-08-02T02:08:31.185Z,975.05
2022-08-02T02:09:30.979Z,975.03
2022-08-02T02:10:30.974Z,975.04
2022-08-02T02:12:14.714Z,975.03
2022-08-02T02:12:30.964Z,975.00
2022-08-02T02:13:33.677Z,975.00
2022-08-02T02:14:30.954Z,974.95
2022-08-02T02:15:30.950Z,974.98
2022-08-02T02:16:30.941Z,974.99
2022-08-02T02:17:53.160Z,974.97
2022-08-02T02:18:30.930Z,974.96
2022-08-02T02:19:30.929Z,974.95
2022-08-02T02:20:30.921Z,974.98
2022-08-02T02:21:31.384Z,974.95
2022-08-02T02:22:30.912Z,974.97
2022-08-02T02:23:35.476Z,974.94
2022-08-02T02:24:30.901Z,974.96
2022-08-02T02:25:35.773Z,974.97
2022-08-02T02:26:31.729Z,974.92
2022-08-02T02:27:30.887Z,974.92
2022-08-02T02:28:30.881Z,974.91
2022-08-02T02:29:30.876Z,974.92
2022-08-02T02:30:30.868Z,974.90
2022-08-02T02:31:30.868Z,974.89
2022-08-02T02:32:30.860Z,974.87
2022-08-02T02:33:30.856Z,974.86
2022-08-02T02:34:30.847Z,974.87
2022-08-02T02:35:30.846Z,974.86
2022-08-02T02:36:30.847Z,974.89
2022-08-02T02:37:30.835Z,974.88
2022-08-02T02:38:30.830Z,974.90
2022-08-02T02:39:30.875Z,974.88
2022-08-02T02:40:30.818Z,974.91
2022-08-02T02:41:30.814Z,974.89
2022-08-02T02:42:30.807Z,974.89
2022-08-02T02:43:30.803Z,974.90
2022-08-02T02:44:30.795Z,974.87
2022-08-02T02:45:30.794Z,974.87
2022-08-02T02:46:30.801Z,974.92
2022-08-02T02:47:41.541Z,974.87
2022-08-02T02:48:30.777Z,974.92
2022-08-02T02:49:30.884Z,974.95
2022-08-02T02:50:30.764Z,974.91
2022-08-02T02:51:30.764Z,974.90
2022-08-02T02:52:30.756Z,974.91
2022-08-02T02:53:30.755Z,974.90
2022-08-02T02:54:34.068Z,974.88
2022-08-02T02:55:30.742Z,974.90
2022-08-02T02:56:30.733Z,974.89
2022-08-02T02:57:30.732Z,974.90
2022-08-02T02:58:30.722Z,974.88
2022-08-02T02:59:30.720Z,974.89
2022-08-02T03:00:30.713Z,974.88
2022-08-02T03:01:55.780Z,974.81
2022-08-02T03:02:30.700Z,974.79
2022-08-02T03:03:30.697Z,974.82
2022-08-02T03:04:36.142Z,974.76
2022-08-02T03:05:30.685Z,974.81
2022-08-02T03:06:30.678Z,974.78
2022-08-02T03:07:30.674Z,974.75
2022-08-02T03:08:30.667Z,974.76
2022-08-02T03:09:30.664Z,974.75
2022-08-02T03:10:30.659Z,974.73
2022-08-02T03:11:30.652Z,974.76
2022-08-02T03:12:32.354Z,974.72
2022-08-02T03:13:33.035Z,974.73
2022-08-02T03:14:30.634Z,974.71
2022-08-02T03:15:30.630Z,974.71
2022-08-02T03:16:30.625Z,974.72
2022-08-02T03:17:30.620Z,974.70
2022-08-02T03:18:30.612Z,974.71
2022-08-02T03:19:33.213Z,974.73
2022-08-02T03:20:30.601Z,974.74
2022-08-02T03:21:30.597Z,974.70
2022-08-02T03:22:30.590Z,974.68
2022-08-02T03:23:30.585Z,974.70
2022-08-02T03:24:30.580Z,974.68
2022-08-02T03:25:30.576Z,974.67
2022-08-02T03:26:30.567Z,974.68
2022-08-02T03:27:30.566Z,974.67
2022-08-02T03:28:30.558Z,974.66
2022-08-02T03:29:34.456Z,974.63
2022-08-02T03:30:30.545Z,974.63
2022-08-02T03:31:32.802Z,974.60
2022-08-02T03:32:30.535Z,974.63
2022-08-02T03:33:30.530Z,974.64
2022-08-02T03:34:30.525Z,974.59
2022-08-02T03:35:30.519Z,974.58
2022-08-02T03:36:30.513Z,974.55
2022-08-02T03:37:30.508Z,974.55
2022-08-02T03:38:30.502Z,974.56
2022-08-02T03:39:30.499Z,974.56
2022-08-02T03:40:30.491Z,974.57
2022-08-02T03:41:30.487Z,974.59
2022-08-02T03:42:30.481Z,974.61
2022-08-02T03:43:30.475Z,974.61
2022-08-02T03:44:30.468Z,974.60
2022-08-02T03:45:30.464Z,974.61
2022-08-02T03:46:30.456Z,974.63
2022-08-02T03:47:30.452Z,974.65
2022-08-02T03:48:34.618Z,974.60
2022-08-02T03:49:30.524Z,974.60
2022-08-02T03:50:30.434Z,974.62
2022-08-02T03:51:30.431Z,974.63
2022-08-02T03:52:30.423Z,974.64
2022-08-02T03:53:30.419Z,974.63
2022-08-02T03:54:34.417Z,974.60
2022-08-02T03:55:30.408Z,974.59
2022-08-02T03:56:30.406Z,974.59
2022-08-02T03:57:30.396Z,974.58
2022-08-02T03:58:30.390Z,974.56
2022-08-02T03:59:31.976Z,974.57
2022-08-02T04:01:30.393Z,974.59
2022-08-02T04:02:30.374Z,974.57
2022-08-02T04:03:30.363Z,974.59
2022-08-02T04:04:30.358Z,974.61
2022-08-02T04:05:30.349Z,974.62
2022-08-02T04:06:30.348Z,974.64
2022-08-02T04:08:32.527Z,974.63
2022-08-02T04:08:35.615Z,974.66
2022-08-02T04:09:30.329Z,974.69
2022-08-02T04:10:30.324Z,974.67
2022-08-02T04:11:30.322Z,974.64
2022-08-02T04:12:30.316Z,974.62
2022-08-02T04:13:34.493Z,974.60
2022-08-02T04:14:30.302Z,974.63
2022-08-02T04:15:30.296Z,974.64
2022-08-02T04:16:30.293Z,974.63
2022-08-02T04:17:30.282Z,974.64
2022-08-02T04:18:30.280Z,974.67
2022-08-02T04:19:30.272Z,974.64
2022-08-02T04:20:30.273Z,974.63
2022-08-02T04:21:48.593Z,974.64
2022-08-02T04:22:30.257Z,974.66
2022-08-02T04:23:30.251Z,974.62
2022-08-02T04:24:30.245Z,974.65
2022-08-02T04:25:35.301Z,974.67
2022-08-02T04:26:30.234Z,974.67
2022-08-02T04:27:50.046Z,974.68
2022-08-02T04:28:30.224Z,974.67
2022-08-02T04:29:30.214Z,974.72
2022-08-02T04:30:30.211Z,974.68
2022-08-02T04:31:30.205Z,974.72
2022-08-02T04:32:30.200Z,974.69
2022-08-02T04:33:30.193Z,974.73
2022-08-02T04:34:30.189Z,974.75
2022-08-02T04:35:30.183Z,974.77
2022-08-02T04:36:30.894Z,974.75
2022-08-02T04:37:30.170Z,974.77
2022-08-02T04:38:30.166Z,974.77
2022-08-02T04:39:30.158Z,974.79
2022-08-02T04:40:30.155Z,974.80
2022-08-02T04:41:30.146Z,974.82
2022-08-02T04:42:30.144Z,974.81
2022-08-02T04:43:30.139Z,974.81
2022-08-02T04:44:30.131Z,974.81
2022-08-02T04:45:30.126Z,974.85
2022-08-02T04:46:30.119Z,974.90
2022-08-02T04:48:02.549Z,974.89
2022-08-02T04:48:30.109Z,974.89
2022-08-02T04:49:30.162Z,974.96
2022-08-02T04:50:30.097Z,974.93
2022-08-02T04:51:37.919Z,974.95
2022-08-02T04:52:30.090Z,974.98
2022-08-02T04:53:30.086Z,975.00
2022-08-02T04:54:30.081Z,975.02
2022-08-02T04:55:30.288Z,975.04
2022-08-02T04:56:30.074Z,975.03
2022-08-02T04:57:30.072Z,975.05
2022-08-02T04:58:44.090Z,975.07
2022-08-02T04:59:30.066Z,975.11
2022-08-02T05:00:30.100Z,975.07
2022-08-02T05:01:30.061Z,975.05
2022-08-02T05:02:30.058Z,975.07
2022-08-02T05:03:30.059Z,975.06
2022-08-02T05:04:30.057Z,975.08
2022-08-02T05:05:30.056Z,975.08
2022-08-02T05:06:30.058Z,975.10
2022-08-02T05:07:30.053Z,975.13
2022-08-02T05:08:30.051Z,975.12
2022-08-02T05:09:30.051Z,975.11
2022-08-02T05:10:30.053Z,975.11
2022-08-02T05:11:36.129Z,975.14
2022-08-02T05:12:30.050Z,975.18
2022-08-02T05:13:30.047Z,975.12
2022-08-02T05:14:30.048Z,975.11
2022-08-02T05:15:33.247Z,975.11
2022-08-02T05:16:30.885Z,975.09
2022-08-02T05:17:30.052Z,975.04
2022-08-02T05:18:30.046Z,975.08
2022-08-02T05:19:30.045Z,975.13
2022-08-02T05:20:30.047Z,975.11
2022-08-02T05:21:30.042Z,975.15
2022-08-02T05:22:30.041Z,975.12
2022-08-02T05:23:30.040Z,975.14
2022-08-02T05:24:30.038Z,975.10
2022-08-02T05:25:30.038Z,975.12
2022-08-02T05:26:30.042Z,975.09
2022-08-02T05:27:30.037Z,975.08
2022-08-02T05:28:30.034Z,975.09
2022-08-02T05:29:30.034Z,975.05
2022-08-02T05:30:30.029Z,975.08
2022-08-02T05:31:30.031Z,975.06
2022-08-02T05:32:30.027Z,975.03
2022-08-02T05:33:30.027Z,975.01
2022-08-02T05:34:30.027Z,975.00
2022-08-02T05:35:30.023Z,975.04
2022-08-02T05:36:30.019Z,975.01
2022-08-02T05:37:32.011Z,975.02
2022-08-02T05:38:30.022Z,975.03
2022-08-02T05:39:31.744Z,975.01
2022-08-02T05:40:30.014Z,975.02
2022-08-02T05:41:30.017Z,975.02
2022-08-02T05:42:30.010Z,975.00
2022-08-02T05:43:30.010Z,975.02
2022-08-02T05:44:30.006Z,975.02
2022-08-02T05:45:30.006Z,975.06
2022-08-02T05:46:30.003Z,975.05
2022-08-02T05:47:30.004Z,975.04
2022-08-02T05:48:32.186Z,975.06
2022-08-02T05:49:30.030Z,975.05
2022-08-02T05:50:30.000Z,975.05
2022-08-02T05:51:29.996Z,975.10
2022-08-02T05:52:29.993Z,975.08
2022-08-02T05:53:29.992Z,975.09
2022-08-02T05:54:29.992Z,975.08
2022-08-02T05:55:29.990Z,975.10
2022-08-02T05:56:29.988Z,975.14
2022-08-02T05:57:29.987Z,975.08
2022-08-02T05:58:29.986Z,975.12
2022-08-02T05:59:29.983Z,975.12
2022-08-02T06:00:29.983Z,975.17
2022-08-02T06:01:30.100Z,975.17
2022-08-02T06:02:30.581Z,975.16
2022-08-02T06:03:29.977Z,975.20
2022-08-02T06:04:29.974Z,975.16
2022-08-02T06:05:29.975Z,975.21
2022-08-02T06:06:29.969Z,975.20
2022-08-02T06:07:29.969Z,975.23
2022-08-02T06:08:29.967Z,975.24
2022-08-02T06:09:29.965Z,975.28
2022-08-02T06:10:29.968Z,975.26
2022-08-02T06:11:29.962Z,975.26
2022-08-02T06:12:29.959Z,975.19
2022-08-02T06:13:29.958Z,975.23
2022-08-02T06:14:30.559Z,975.24
2022-08-02T06:15:29.956Z,975.25
2022-08-02T06:16:32.511Z,975.23
2022-08-02T06:17:29.952Z,975.26
2022-08-02T06:18:29.949Z,975.26
2022-08-02T06:19:29.950Z,975.24
2022-08-02T06:20:29.959Z,975.20
2022-08-02T06:22:34.891Z,975.19
2022-08-02T06:22:37.679Z,975.18
2022-08-02T06:23:29.943Z,975.17
2022-08-02T06:24:29.940Z,975.17
2022-08-02T06:25:51.080Z,975.15
2022-08-02T06:26:29.936Z,975.12
2022-08-02T06:27:29.939Z,975.08
2022-08-02T06:28:29.930Z,975.12
2022-08-02T06:29:29.936Z,975.07
2022-08-02T06:30:29.928Z,975.06
2022-08-02T06:31:29.932Z,975.11
2022-08-02T06:32:29.924Z,975.12
2022-08-02T06:33:29.926Z,975.09
2022-08-02T06:34:29.920Z,975.10
2022-08-02T06:35:29.922Z,975.07
2022-08-02T06:36:29.920Z,975.08
2022-08-02T06:37:29.918Z,975.04
2022-08-02T06:38:29.913Z,975.06
2022-08-02T06:39:29.916Z,975.05
2022-08-02T06:40:29.910Z,975.04
2022-08-02T06:41:29.912Z,975.04
2022-08-02T06:42:29.907Z,975.06
2022-08-02T06:44:49.921Z,975.08
2022-08-02T06:45:29.904Z,975.03
2022-08-02T06:46:37.700Z,975.07
2022-08-02T06:47:29.901Z,975.10
2022-08-02T06:48:29.899Z,975.09
2022-08-02T06:49:51.940Z,975.09
2022-08-02T06:50:29.896Z,975.07
2022-08-02T06:51:29.893Z,975.11
2022-08-02T06:52:30.609Z,975.10
2022-08-02T06:53:29.887Z,975.13
2022-08-02T06:54:29.888Z,975.12
2022-08-02T06:55:29.884Z,975.14
2022-08-02T06:56:29.884Z,975.15
2022-08-02T06:57:29.886Z,975.17
2022-08-02T06:58:29.881Z,975.13
2022-08-02T06:59:29.875Z,975.18
2022-08-02T07:00:29.876Z,975.17
2022-08-02T07:01:38.659Z,975.16
2022-08-02T07:02:29.871Z,975.16
2022-08-02T07:03:29.867Z,975.14
2022-08-02T07:04:29.866Z,975.17
2022-08-02T07:05:29.862Z,975.16
2022-08-02T07:06:29.861Z,975.11
2022-08-02T07:07:29.859Z,975.10
2022-08-02T07:08:29.859Z,975.10
2022-08-02T07:09:29.855Z,975.10
2022-08-02T07:10:29.858Z,975.13
2022-08-02T07:11:29.849Z,975.16
2022-08-02T07:12:29.866Z,975.14
2022-08-02T07:13:29.846Z,975.11
2022-08-02T07:14:29.846Z,975.13
2022-08-02T07:15:29.842Z,975.16
2022-08-02T07:16:29.842Z,975.20
2022-08-02T07:17:29.837Z,975.14
2022-08-02T07:18:29.839Z,975.16
2022-08-02T07:19:37.743Z,975.14
2022-08-02T07:20:29.836Z,975.18
2022-08-02T07:21:45.829Z,975.16
2022-08-02T07:22:29.830Z,975.16
2022-08-02T07:23:29.827Z,975.18
2022-08-02T07:24:29.927Z,975.17
2022-08-02T07:26:02.340Z,975.20
2022-08-02T07:26:29.822Z,975.20
2022-08-02T07:27:29.820Z,975.19
2022-08-02T07:28:29.818Z,975.18
2022-08-02T07:29:33.596Z,975.24
2022-08-02T07:30:29.815Z,975.25
2022-08-02T07:31:29.812Z,975.21
2022-08-02T07:32:29.816Z,975.28
2022-08-02T07:33:38.931Z,975.24
2022-08-02T07:34:29.807Z,975.26
2022-08-02T07:35:29.804Z,975.26
2022-08-02T07:36:29.808Z,975.20
2022-08-02T07:37:53.472Z,975.17
2022-08-02T07:38:29.801Z,975.18
2022-08-02T07:39:29.797Z,975.17
2022-08-02T07:40:29.810Z,975.13
2022-08-02T07:41:29.792Z,975.13
2022-08-02T07:42:29.793Z,975.13
2022-08-02T07:43:29.791Z,975.14
2022-08-02T07:44:29.792Z,975.11
2022-08-02T07:45:29.785Z,975.13
2022-08-02T07:46:29.784Z,975.13
2022-08-02T07:47:29.782Z,975.13
2022-08-02T07:48:29.780Z,975.12
2022-08-02T07:49:29.886Z,975.09
2022-08-02T07:50:29.778Z,975.16
2022-08-02T07:51:29.771Z,975.12
2022-08-02T07:52:29.973Z,975.10
2022-08-02T07:53:50.260Z,975.10
2022-08-02T07:54:29.770Z,975.13
2022-08-02T07:55:39.074Z,975.12
2022-08-02T07:56:29.764Z,975.09
2022-08-02T07:57:29.761Z,975.09
2022-08-02T07:58:29.760Z,975.11
2022-08-02T07:59:29.756Z,975.05
2022-08-02T08:00:29.756Z,975.08
2022-08-02T08:01:29.791Z,975.10
2022-08-02T08:02:29.754Z,975.09
2022-08-02T08:03:29.751Z,975.14
2022-08-02T08:04:29.754Z,975.13
2022-08-02T08:05:29.745Z,975.17
2022-08-02T08:06:29.745Z,975.11
2022-08-02T08:07:29.741Z,975.09
2022-08-02T08:08:29.743Z,975.13
2022-08-02T08:09:29.740Z,975.12
2022-08-02T08:10:29.740Z,975.12
2022-08-02T08:11:29.736Z,975.11
2022-08-02T08:12:29.738Z,975.14
2022-08-02T08:13:29.733Z,975.13
2022-08-02T08:14:29.735Z,975.11
2022-08-02T08:15:29.731Z,975.08
2022-08-02T08:16:29.731Z,975.05
2022-08-02T08:17:29.728Z,975.00
2022-08-02T08:18:29.728Z,975.03
2022-08-02T08:19:49.961Z,975.05
2022-08-02T08:20:29.726Z,975.09
2022-08-02T08:21:29.721Z,975.02
2022-08-02T08:22:29.722Z,975.04
2022-08-02T08:23:29.720Z,975.00
2022-08-02T08:24:29.721Z,975.01
2022-08-02T08:25:29.717Z,975.07
2022-08-02T08:26:29.719Z,975.10
2022-08-02T08:27:29.716Z,975.11
2022-08-02T08:28:29.718Z,975.09
2022-08-02T08:29:29.713Z,975.07
2022-08-02T08:30:29.713Z,975.12
2022-08-02T08:31:29.712Z,975.05
2022-08-02T08:32:29.713Z,975.03
2022-08-02T08:33:29.711Z,975.03
2022-08-02T08:34:29.711Z,975.04
2022-08-02T08:35:29.706Z,975.05
2022-08-02T08:36:29.710Z,974.99
2022-08-02T08:37:29.706Z,974.99
2022-08-02T08:38:29.706Z,974.99
2022-08-02T08:39:29.705Z,975.00
2022-08-02T08:40:29.721Z,974.99
2022-08-02T08:41:30.128Z,974.99
2022-08-02T08:42:29.705Z,975.01
2022-08-02T08:43:29.705Z,975.01
2022-08-02T08:44:29.707Z,974.97
2022-08-02T08:45:29.701Z,974.99
2022-08-02T08:46:29.703Z,975.01
2022-08-02T08:47:33.460Z,975.04
2022-08-02T08:48:30.948Z,975.02
2022-08-02T08:49:29.728Z,975.02
2022-08-02T08:50:29.702Z,975.02
2022-08-02T08:51:29.698Z,975.03
2022-08-02T08:52:29.700Z,975.03
2022-08-02T08:53:36.931Z,975.07
2022-08-02T08:54:29.700Z,975.00
2022-08-02T08:55:29.698Z,975.01
2022-08-02T08:56:29.700Z,974.96
2022-08-02T08:57:29.701Z,974.93
2022-08-02T08:58:29.701Z,974.92
2022-08-02T08:59:29.696Z,974.91
2022-08-02T09:00:29.699Z,974.94
2022-08-02T09:01:49.830Z,974.94
2022-08-02T09:02:29.975Z,974.97
2022-08-02T09:03:33.802Z,974.98
2022-08-02T09:04:29.698Z,974.96
2022-08-02T09:05:29.700Z,974.92
2022-08-02T09:06:29.698Z,974.93
2022-08-02T09:07:29.702Z,974.97
2022-08-02T09:08:29.699Z,974.93
2022-08-02T09:09:29.700Z,974.92
2022-08-02T09:10:29.698Z,974.87
2022-08-02T09:11:29.702Z,974.87
2022-08-02T09:12:29.698Z,974.86
2022-08-02T09:13:37.561Z,974.87
2022-08-02T09:14:29.698Z,974.85
2022-08-02T09:15:29.701Z,974.85
2022-08-02T09:16:29.700Z,974.84
2022-08-02T09:17:29.702Z,974.82
2022-08-02T09:18:29.700Z,974.81
2022-08-02T09:19:29.703Z,974.74
2022-08-02T09:20:30.902Z,974.76
2022-08-02T09:21:29.703Z,974.72
2022-08-02T09:22:29.701Z,974.69
2022-08-02T09:23:29.705Z,974.70
2022-08-02T09:24:30.936Z,974.73
2022-08-02T09:25:29.707Z,974.72
2022-08-02T09:26:29.707Z,974.71
2022-08-02T09:27:29.707Z,974.72
2022-08-02T09:28:29.705Z,974.73
2022-08-02T09:29:29.710Z,974.72
2022-08-02T09:30:29.706Z,974.71
2022-08-02T09:31:29.711Z,974.71
2022-08-02T09:32:29.708Z,974.75
2022-08-02T09:33:29.708Z,974.71
2022-08-02T09:34:29.708Z,974.70
2022-08-02T09:35:29.709Z,974.77
2022-08-02T09:36:29.709Z,974.71
2022-08-02T09:37:29.715Z,974.66
2022-08-02T09:38:29.709Z,974.69
2022-08-02T09:40:29.712Z,974.68
2022-08-02T09:41:29.708Z,974.67
2022-08-02T09:42:30.083Z,974.64
2022-08-02T09:43:29.712Z,974.62
2022-08-02T09:44:29.713Z,974.67
2022-08-02T09:45:29.711Z,974.65
2022-08-02T09:46:29.714Z,974.70
2022-08-02T09:47:31.056Z,974.68
2022-08-02T09:48:29.715Z,974.72
2022-08-02T09:49:29.793Z,974.69
2022-08-02T09:50:29.716Z,974.69
2022-08-02T09:51:29.715Z,974.61
2022-08-02T09:52:43.374Z,974.64
2022-08-02T09:53:29.717Z,974.62
2022-08-02T09:54:29.719Z,974.62
2022-08-02T09:55:30.039Z,974.58
2022-08-02T09:58:29.722Z,974.55
2022-08-02T09:59:29.723Z,974.57
2022-08-02T10:00:50.721Z,974.54
2022-08-02T10:01:36.895Z,974.57
2022-08-02T10:02:29.842Z,974.52
2022-08-02T10:03:37.109Z,974.54
2022-08-02T10:04:29.726Z,974.55
2022-08-02T10:05:29.723Z,974.55
2022-08-02T10:06:29.726Z,974.53
2022-08-02T10:07:29.725Z,974.53
2022-08-02T10:08:29.778Z,974.55
2022-08-02T10:09:29.732Z,974.55
2022-08-02T10:10:29.731Z,974.53
2022-08-02T10:11:29.730Z,974.57
2022-08-02T10:12:29.734Z,974.56
2022-08-02T10:13:29.731Z,974.58
2022-08-02T10:14:29.731Z,974.56
2022-08-02T10:15:29.731Z,974.57
2022-08-02T10:16:29.734Z,974.51
2022-08-02T10:17:29.733Z,974.45
2022-08-02T10:18:38.901Z,974.43
2022-08-02T10:20:00.976Z,974.41
2022-08-02T10:20:29.740Z,974.39
2022-08-02T10:21:29.736Z,974.38
2022-08-02T10:22:29.741Z,974.31
2022-08-02T10:23:29.747Z,974.31
2022-08-02T10:24:29.745Z,974.31
2022-08-02T10:25:29.754Z,974.29
2022-08-02T10:26:29.746Z,974.28
2022-08-02T10:27:38.899Z,974.26
2022-08-02T10:28:29.749Z,974.26
2022-08-02T10:29:29.746Z,974.23
2022-08-02T10:30:29.749Z,974.21
2022-08-02T10:31:29.749Z,974.21
2022-08-02T10:32:29.754Z,974.24
2022-08-02T10:33:29.750Z,974.21
2022-08-02T10:34:31.829Z,974.19
2022-08-02T10:35:29.753Z,974.12
2022-08-02T10:36:29.758Z,974.17
2022-08-02T10:37:29.755Z,974.13
2022-08-02T10:38:29.761Z,974.14
2022-08-02T10:39:29.760Z,974.19
2022-08-02T10:40:29.764Z,974.16
2022-08-02T10:41:29.762Z,974.14
2022-08-02T10:42:29.766Z,974.10
2022-08-02T10:43:29.766Z,974.12
2022-08-02T10:44:29.770Z,974.14
2022-08-02T10:45:29.784Z,974.13
2022-08-02T10:46:29.773Z,974.21
2022-08-02T10:47:29.772Z,974.22
2022-08-02T10:48:29.776Z,974.20
2022-08-02T10:49:39.662Z,974.30
2022-08-02T10:50:29.779Z,974.21
2022-08-02T10:51:33.092Z,974.24
2022-08-02T10:52:29.784Z,974.21
2022-08-02T10:53:29.783Z,974.20
2022-08-02T10:54:29.786Z,974.12
2022-08-02T10:55:29.785Z,974.12
2022-08-02T10:56:29.792Z,974.08
2022-08-02T10:57:29.788Z,974.11
2022-08-02T10:58:30.061Z,974.08
2022-08-02T10:59:29.794Z,974.06
2022-08-02T11:00:29.795Z,974.08
2022-08-02T11:01:38.916Z,974.05
2022-08-02T11:02:29.798Z,974.06
2022-08-02T11:03:29.812Z,974.02
2022-08-02T11:04:29.803Z,974.02
2022-08-02T11:05:42.298Z,974.00
2022-08-02T11:06:29.808Z,974.05
2022-08-02T11:07:29.806Z,974.02
2022-08-02T11:08:29.811Z,974.06
2022-08-02T11:09:32.954Z,974.07
2022-08-02T11:10:29.815Z,974.05
2022-08-02T11:11:53.823Z,974.04
2022-08-02T11:12:29.818Z,974.09
2022-08-02T11:13:29.820Z,974.03
2022-08-02T11:14:29.822Z,974.03
2022-08-02T11:15:29.822Z,974.06
2022-08-02T11:16:29.828Z,974.04
2022-08-02T11:17:38.761Z,974.03
2022-08-02T11:18:29.831Z,974.03
2022-08-02T11:19:29.830Z,974.01
2022-08-02T11:20:29.835Z,974.01
2022-08-02T11:21:29.836Z,973.94
2022-08-02T11:22:29.840Z,973.94
2022-08-02T11:23:44.547Z,973.93
2022-08-02T11:24:29.853Z,973.90
2022-08-02T11:25:54.371Z,973.95
2022-08-02T11:26:29.849Z,973.88
2022-08-02T11:27:29.851Z,973.89
2022-08-02T11:28:29.856Z,973.83
2022-08-02T11:29:29.854Z,973.88
2022-08-02T11:30:29.858Z,973.80
2022-08-02T11:31:29.866Z,973.85
2022-08-02T11:32:30.745Z,973.84
2022-08-02T11:33:29.863Z,973.81
2022-08-02T11:34:37.628Z,973.79
2022-08-02T11:35:29.869Z,973.89
2022-08-02T11:36:29.874Z,973.86
2022-08-02T11:37:29.874Z,973.79
2022-08-02T11:38:29.880Z,973.77
2022-08-02T11:39:29.882Z,973.78
2022-08-02T11:40:32.503Z,973.77
2022-08-02T11:41:46.862Z,973.78
2022-08-02T11:42:29.886Z,973.76
2022-08-02T11:43:29.890Z,973.72
2022-08-02T11:44:29.895Z,973.76
2022-08-02T11:45:30.238Z,973.71
2022-08-02T11:46:29.897Z,973.73
2022-08-02T11:47:29.897Z,973.70
2022-08-02T11:48:29.902Z,973.70
2022-08-02T11:49:29.964Z,973.72
2022-08-02T11:50:30.714Z,973.73
2022-08-02T11:51:29.907Z,973.72
2022-08-02T11:52:29.911Z,973.73
2022-08-02T11:53:29.912Z,973.74
2022-08-02T11:54:29.918Z,973.70
2022-08-02T11:55:29.916Z,973.75
2022-08-02T11:56:29.923Z,973.67
2022-08-02T11:57:29.922Z,973.67
2022-08-02T11:58:29.927Z,973.64
2022-08-02T11:59:29.933Z,973.68
2022-08-02T12:00:30.520Z,973.69
2022-08-02T12:01:29.934Z,973.63
2022-08-02T12:02:29.944Z,973.66
2022-08-02T12:03:29.998Z,973.67
2022-08-02T12:04:29.944Z,973.70
2022-08-02T12:06:03.915Z,973.72
2022-08-02T12:06:29.947Z,973.71
2022-08-02T12:07:34.305Z,973.69
2022-08-02T12:08:29.953Z,973.62
2022-08-02T12:09:29.954Z,973.68
2022-08-02T12:10:29.958Z,973.66
2022-08-02T12:11:38.880Z,973.66
2022-08-02T12:12:29.965Z,973.67
2022-08-02T12:13:29.964Z,973.69
2022-08-02T12:14:29.970Z,973.65
2022-08-02T12:15:29.970Z,973.62
2022-08-02T12:16:29.978Z,973.62
2022-08-02T12:17:29.979Z,973.61
2022-08-02T12:18:29.980Z,973.60
2022-08-02T12:19:29.982Z,973.60
2022-08-02T12:20:29.988Z,973.56
2022-08-02T12:21:29.987Z,973.61
2022-08-02T12:22:30.043Z,973.59
2022-08-02T12:23:29.995Z,973.64
2022-08-02T12:24:30.013Z,973.59
2022-08-02T12:25:34.568Z,973.59
2022-08-02T12:26:30.119Z,973.58
2022-08-02T12:27:30.008Z,973.53
2022-08-02T12:28:30.013Z,973.59
2022-08-02T12:29:58.471Z,973.58
2022-08-02T12:30:30.021Z,973.57
2022-08-02T12:31:30.020Z,973.58
2022-08-02T12:32:30.027Z,973.56
2022-08-02T12:33:30.027Z,973.59